Hesperia, CA (92340)

11:32 PDT le 31 octobre 2014 (GMT -0700)
High Desert Mesa | Change Station
CLOSE
Current Station
Stations météorologiques personnelles
Location: Hesperia, CA
Altitude: 3251 ft
Stations météo à proximité
Avis météorologiques actifs: Wind Advisory

Alt. 3251 ft 34.39 °N, 117.29 °W | Updated 14 seconds ago

Ciel dégagé
Ciel dégagé
69.8 ° F
Paraît 69.8 ° F
N
9.2
Vent Variable Vent de Sud
Gusts 9.8 mph

Aujourd'hui
Haut(e) -- | Bas -- ° F
--% Risque de précip.
Hier
Haut(e) -- | Bas -- ° F
Precip. -- pouce
7:08 AM 5:56 PM
Premier quartier, 57% visible
Pression 29.95 pouce
Visibilité 10.0 Miles terrestres
Nuages Ciel dégagé
Point de rosée 45 ° F
Humidité 41%
Précipitations 0.00 pouce
Profondeur de la couche neigeuse Non disponible.
UV 5 sur 12
Pollen 3.10 sur 12
Qualité de l'air Non disponible.
Flu Activity Non disponible.
METAR KVCV 311815Z AUTO 20009KT 10SM CLR 20/06 A2995 RMK AO2

More Conditions Fewer Conditions

Pression 29.95 pouce
Visibilité 10.0 Miles terrestres
Nuages Ciel dégagé
Point de rosée 45 ° F
Humidité 41%
Précipitations 0.00 pouce
Profondeur de la couche neigeuse Non disponible.
UV 5 sur 12
Pollen 3.10 sur 12
Qualité de l'air Non disponible.
Flu Activity Non disponible.
METAR KVCV 311815Z AUTO 20009KT 10SM CLR 20/06 A2995 RMK AO2

More Conditions Fewer Conditions

10-Day Weather Forecast

Almanac

Astronomie

Oct. 31, 2014 Lever Coucher
Temps réel
Crépuscule civil
Crépuscule nautique
Crépuscule astronomique
Lune
Durée de lumière visible
Longueur du jour
Tomorrow will be .
, % of the Moon is Illuminated

Extrêmes aujourd'hui

State Highs State Lows

Community

WunderPhotos

Upload Photos

1,766,690 Photos téléchargées !

WunderBlogs® & News

Nearby

Qualité de l'air

  Qualité de l'air Indice de la qualité de l'air Polluant
Not available.

Épaisseur de neige

Station Depth Altitude

Activité sismique

Ville Distance Mag. Time & Date
Minimum magnitude displayed is 2.5.

Températures des eaux côtières

Lieu Température

Stations météo à proximité